Berit — ZDHX2 — position and weather

sailwx.info

Track history (hours):
 
Tides and Currents Weather Stations Pressure Air Temp Water Temp Dewpoint Dewpoint Depression Visibility Wind Speed Wind Dir Waves Ship Positions

Berit

Last reported at 2017-Jul-21 03:42 UTC. Time now 2017-Jul-23 20:42 UTC.
Position N 63°19' E 006°50'.

Length 83 m; draft 3.4 m.

Type: Cargo ship. MMSI: 236386000.

Date/timePositionNaut miles runAvg speedWind from/ knotsBaromVisibWave heightAir tempDewpointWater temp
2017-Jul-21 03:42N 63°19' E 006°50'210.2
2017-Jul-21 03:30N 63°19' E 006°55'510.0
2017-Jul-21 03:00N 63°17' E 007°05'510.4
2017-Jul-21 02:30N 63°16' E 007°16'510.3
2017-Jul-21 02:01N 63°15' E 007°27'510.1
2017-Jul-21 01:30N 63°14' E 007°39'4 8.9
2017-Jul-21 01:01N 63°11' E 007°44'510.3
2017-Jul-21 00:30N 63°06' E 007°41'3 5.0
2017-Jul-21 00:00N 63°03' E 007°39'0 0.0
2017-Jul-20 23:28N 63°03' E 007°39'0 0.0
2017-Jul-20 22:58N 63°03' E 007°39'0 0.0
2017-Jul-20 22:28N 63°03' E 007°39'0 0.0
2017-Jul-20 21:58N 63°03' E 007°39'0 0.0
2017-Jul-20 21:28N 63°03' E 007°39'0 0.0
2017-Jul-20 20:58N 63°03' E 007°39'0 0.0
2017-Jul-20 20:28N 63°03' E 007°39'0 0.0
2017-Jul-20 19:58N 63°03' E 007°39'0 0.0
2017-Jul-20 19:28N 63°03' E 007°39'0 0.0
2017-Jul-20 18:58N 63°03' E 007°39'0 0.0
2017-Jul-20 18:28N 63°03' E 007°39'0 0.0
2017-Jul-20 17:58N 63°03' E 007°39'0 0.0
2017-Jul-20 17:28N 63°03' E 007°39'0 0.0
2017-Jul-20 16:58N 63°03' E 007°39'0 0.0
2017-Jul-20 16:28N 63°03' E 007°39'0 0.0
2017-Jul-20 15:58N 63°03' E 007°39'0 0.0
2017-Jul-20 15:28N 63°03' E 007°39'0 0.0
2017-Jul-20 14:58N 63°03' E 007°39'0 0.0
2017-Jul-20 13:58N 63°03' E 007°39'0 0.0
2017-Jul-20 13:28N 63°03' E 007°39'0 0.0
2017-Jul-20 12:58N 63°03' E 007°39'0 0.0
2017-Jul-20 12:28N 63°03' E 007°39'0 0.0
2017-Jul-20 11:58N 63°03' E 007°39'0 0.0
2017-Jul-20 11:28N 63°03' E 007°39'0 0.0
2017-Jul-20 10:58N 63°03' E 007°39'0 0.0
2017-Jul-20 10:28N 63°03' E 007°39'0 0.0
2017-Jul-20 09:58N 63°03' E 007°39'0 0.0
2017-Jul-20 09:28N 63°03' E 007°39'0 0.0
2017-Jul-20 08:58N 63°03' E 007°39'0 0.0
2017-Jul-20 08:28N 63°03' E 007°39'0 0.0
2017-Jul-20 07:58N 63°03' E 007°39'0 0.0
2017-Jul-20 07:28N 63°03' E 007°39'0 0.0
2017-Jul-20 06:58N 63°03' E 007°39'0 0.0
2017-Jul-20 06:28N 63°03' E 007°39'0 0.0
2017-Jul-20 05:58N 63°03' E 007°39'0 0.0
2017-Jul-20 05:28N 63°03' E 007°39'0 0.0
2017-Jul-20 04:58N 63°03' E 007°39'0 0.0
2017-Jul-20 04:28N 63°03' E 007°39'0 0.0
2017-Jul-20 03:58N 63°03' E 007°39'0 0.0
2017-Jul-20 03:28N 63°03' E 007°39'0 0.0
2017-Jul-20 02:58N 63°03' E 007°39'0 0.0
2017-Jul-20 02:28N 63°03' E 007°39'0 0.0
2017-Jul-20 01:58N 63°03' E 007°39'0 0.0
2017-Jul-20 01:28N 63°03' E 007°39'0 0.2
2017-Jul-20 01:01N 63°03' E 007°40'4 7.3
2017-Jul-20 00:30N 63°07' E 007°40'5 9.7
2017-Jul-20 00:01N 63°12' E 007°44'4 8.4
2017-Jul-19 23:30N 63°15' E 007°38'4 8.8
2017-Jul-19 23:00N 63°14' E 007°28'4 9.0
2017-Jul-19 22:31N 63°12' E 007°19'4 8.7
2017-Jul-19 22:00N 63°10' E 007°11'4 8.6
2017-Jul-19 21:30N 63°07' E 007°03'4 8.8
2017-Jul-19 21:00N 63°05' E 006°55'4 8.7
2017-Jul-19 20:30N 63°03' E 006°47'4 8.6
2017-Jul-19 20:00N 63°00' E 006°39'4 8.7
2017-Jul-19 19:30N 62°58' E 006°31'4 8.1
2017-Jul-19 18:59N 62°56' E 006°23'4 8.4
2017-Jul-19 18:30N 62°53' E 006°16'4 8.5
2017-Jul-19 18:00N 62°51' E 006°08'4 8.5
2017-Jul-19 17:30N 62°49' E 006°00'4 8.5
2017-Jul-19 17:00N 62°46' E 005°52'4 8.6
2017-Jul-19 16:30N 62°43' E 005°47'4 8.9
2017-Jul-19 16:00N 62°40' E 005°41'5 9.1
2017-Jul-19 15:30N 62°36' E 005°35'5 9.3
2017-Jul-19 15:00N 62°32' E 005°29'5 9.3
2017-Jul-19 14:30N 62°28' E 005°23'5 9.3
2017-Jul-19 14:00N 62°25' E 005°17'5 9.3
2017-Jul-19 13:30N 62°21' E 005°11'5 9.3
2017-Jul-19 13:00N 62°17' E 005°05'5 9.2
2017-Jul-19 12:30N 62°14' E 004°59'4 9.1
2017-Jul-19 12:00N 62°10' E 004°54'5 9.2
2017-Jul-19 11:30N 62°06' E 004°50'5 9.1
2017-Jul-19 11:00N 62°01' E 004°45'5 9.3
2017-Jul-19 10:30N 61°57' E 004°42'5 9.2
2017-Jul-19 10:00N 61°53' E 004°38'5 9.3
2017-Jul-19 09:30N 61°49' E 004°34'5 9.3
2017-Jul-19 09:00N 61°44' E 004°30'5 9.1
2017-Jul-19 08:30N 61°40' E 004°26'5 9.2
2017-Jul-19 08:00N 61°36' E 004°25'5 9.4
2017-Jul-19 07:31N 61°31' E 004°24'5 9.6
2017-Jul-19 07:00N 61°26' E 004°22'5 9.8
2017-Jul-19 06:31N 61°22' E 004°22'510.0
2017-Jul-19 06:00N 61°16' E 004°20'510.2
2017-Jul-19 05:30N 61°11' E 004°20'510.3
2017-Jul-19 05:00N 61°06' E 004°19'510.3
2017-Jul-19 04:30N 61°01' E 004°18'510.0
2017-Jul-19 04:00N 60°56' E 004°17'5 9.9
2017-Jul-19 03:29N 60°51' E 004°18'510.0
2017-Jul-19 03:00N 60°46' E 004°19'510.1
2017-Jul-19 02:30N 60°41' E 004°20'96 9.5
2017-Jul-18 16:24N 59°06' E 004°45'4 9.2
2017-Jul-18 15:59N 59°03' E 004°49'5 9.2
2017-Jul-18 15:29N 58°59' E 004°54'4 9.2
2017-Jul-18 15:00N 58°56' E 004°58'9 9.4
2017-Jul-18 14:00N 58°48' E 005°08'5 9.3
2017-Jul-18 13:31N 58°44' E 005°13'5 9.1
2017-Jul-18 13:01N 58°40' E 005°18'4 9.0
2017-Jul-18 12:31N 58°36' E 005°22'4 8.7
2017-Jul-18 12:01N 58°32' E 005°26'4 8.6
2017-Jul-18 11:31N 58°29' E 005°31'4 8.0
2017-Jul-18 11:00N 58°25' E 005°34'4 8.1
2017-Jul-18 10:30N 58°21' E 005°37'4 8.4
2017-Jul-18 10:00N 58°17' E 005°39'4 8.6
2017-Jul-18 09:30N 58°13' E 005°40'187 8.6
2017-Jul-17 11:44N 55°06' E 005°30'2 8.8
2017-Jul-17 11:29N 55°04' E 005°29'4 8.9
2017-Jul-17 10:59N 54°60' E 005°28'4 8.9
2017-Jul-17 10:31N 54°56' E 005°26'82 9.0
2017-Jul-17 01:23N 53°36' E 004°50'4 9.7
2017-Jul-17 00:59N 53°33' E 004°47'6 9.9
2017-Jul-17 00:25N 53°27' E 004°43'1510.3
2017-Jul-16 22:57N 53°14' E 004°33'511.0
2017-Jul-16 22:30N 53°09' E 004°29'611.3
2017-Jul-16 22:00N 53°04' E 004°25'511.1
2017-Jul-16 21:30N 52°60' E 004°20'611.1
2017-Jul-16 20:59N 52°55' E 004°15'511.0
2017-Jul-16 20:31N 52°50' E 004°11'611.1
2017-Jul-16 20:01N 52°45' E 004°06'610.9
2017-Jul-16 19:30N 52°41' E 003°60'84 9.2
2017-Jul-16 10:19N 51°38' E 002°29'3 9.3
2017-Jul-16 10:00N 51°36' E 002°26'5 9.4
2017-Jul-16 09:29N 51°32' E 002°21'5 9.7
2017-Jul-16 09:00N 51°28' E 002°16'510.2
2017-Jul-16 08:31N 51°24' E 002°12'510.3
2017-Jul-16 08:01N 51°20' E 002°08'510.7
2017-Jul-16 07:31N 51°15' E 002°04'510.7
2017-Jul-16 07:00N 51°12' E 001°57'611.0
2017-Jul-16 06:31N 51°09' E 001°50'611.5
2017-Jul-16 06:00N 51°04' E 001°43'612.1
2017-Jul-16 05:30N 50°60' E 001°37'712.7
2017-Jul-16 04:57N 50°55' E 001°30'91 9.8
2017-Jul-15 19:41N 49°46' W 000°06'2 8.1
2017-Jul-15 19:27N 49°45' W 000°07'11 8.9
2017-Jul-15 18:16N 49°35' W 000°10'3 9.4
2017-Jul-15 18:00N 49°32' W 000°10'4 9.1
2017-Jul-15 17:31N 49°29' W 000°05'510.1
2017-Jul-15 17:00N 49°27' E 000°02'510.5
2017-Jul-15 16:31N 49°26' E 000°10'510.3
2017-Jul-15 16:01N 49°26' E 000°18'5 9.5
2017-Jul-15 15:31N 49°27' E 000°25'5 0.2
2017-Jul-14 10:40N 49°29' E 000°32'211.3
2017-Jul-14 10:27N 49°28' E 000°28'612.8
2017-Jul-14 10:00N 49°26' E 000°20'612.3
2017-Jul-14 09:30N 49°26' E 000°11'611.4
2017-Jul-14 09:00N 49°27' E 000°02'4 8.4
2017-Jul-14 08:30N 49°29' W 000°04'1 2.7
2017-Jul-14 08:00N 49°29' W 000°06'0 0.0
2017-Jul-14 07:30N 49°29' W 000°06'0 0.0
2017-Jul-14 06:57N 49°29' W 000°06'0 0.0
2017-Jul-14 06:30N 49°29' W 000°06'0 0.0
2017-Jul-14 05:57N 49°29' W 000°06'0 0.0
2017-Jul-14 05:27N 49°29' W 000°06'0 0.0
2017-Jul-14 04:54N 49°29' W 000°06'0 0.0
2017-Jul-14 04:27N 49°29' W 000°06'0 0.1
2017-Jul-14 04:00N 49°29' W 000°06'0 0.0
2017-Jul-14 03:27N 49°29' W 000°06'0 0.0
2017-Jul-14 02:57N 49°29' W 000°06'0 0.0
2017-Jul-14 02:27N 49°29' W 000°06'0 0.0
2017-Jul-14 02:00N 49°29' W 000°06'0 0.0
2017-Jul-14 01:30N 49°29' W 000°06'0 0.0
2017-Jul-14 01:00N 49°29' W 000°06'0 0.0
2017-Jul-14 00:30N 49°29' W 000°06'0 0.0
2017-Jul-14 00:00N 49°29' W 000°06'0 0.0
2017-Jul-13 23:27N 49°29' W 000°06'0 0.0
2017-Jul-13 22:51N 49°29' W 000°06'0 0.0
2017-Jul-13 22:30N 49°29' W 000°06'0 0.1
2017-Jul-13 21:57N 49°29' W 000°06'0 0.0
2017-Jul-13 21:30N 49°29' W 000°06'0 0.1
2017-Jul-13 21:00N 49°29' W 000°06'0 0.0
2017-Jul-13 20:30N 49°29' W 000°06'0 0.0
2017-Jul-13 20:00N 49°29' W 000°06'0 0.0
2017-Jul-13 19:27N 49°29' W 000°06'0 0.0
2017-Jul-13 18:57N 49°29' W 000°06'0 0.0
2017-Jul-13 18:27N 49°29' W 000°06'1 2.3
2017-Jul-13 18:01N 49°29' W 000°07'4 8.5
2017-Jul-13 17:30N 49°33' W 000°11'510.8
2017-Jul-13 17:00N 49°38' W 000°11'610.8
2017-Jul-13 16:28N 49°44' W 000°10'710.8
2017-Jul-13 15:47N 49°51' W 000°08'310.5
2017-Jul-13 15:30N 49°54' W 000°08'510.6
2017-Jul-13 15:00N 49°59' W 000°07'510.6
2017-Jul-13 14:30N 50°04' W 000°06'510.4
2017-Jul-13 14:00N 50°10' W 000°05'1110.0
2017-Jul-13 12:57N 50°20' W 000°05'5 9.6
2017-Jul-13 12:24N 50°25' W 000°02'3 8.2
2017-Jul-13 12:00N 50°28' E 000°01'4 8.5
2017-Jul-13 11:30N 50°29' E 000°07'5 8.5
2017-Jul-13 10:53N 50°32' E 000°15'13 9.2
2017-Jul-13 09:31N 50°37' E 000°33'010.1
2017-Jul-13 09:30N 50°37' E 000°33'610.6
2017-Jul-13 08:58N 50°40' E 000°41'510.9
2017-Jul-13 08:30N 50°43' E 000°46'1711.9
2017-Jul-13 07:07N 50°53' E 001°07'111.8
2017-Jul-13 07:00N 50°54' E 001°09'611.6
2017-Jul-13 06:30N 50°58' E 001°16'611.2
2017-Jul-13 06:01N 51°02' E 001°23'510.5
2017-Jul-13 05:30N 51°05' E 001°29'5 9.4
2017-Jul-13 05:01N 51°08' E 001°35'4 8.5
2017-Jul-13 04:31N 51°11' E 001°40'4 8.2
2017-Jul-13 04:00N 51°13' E 001°45'4 8.4
2017-Jul-13 03:31N 51°17' E 001°47'4 8.5
2017-Jul-13 03:01N 51°21' E 001°50'4 9.0
2017-Jul-13 02:30N 51°26' E 001°52'5 9.1
2017-Jul-13 02:00N 51°29' E 001°56'5 9.9
2017-Jul-13 01:30N 51°33' E 002°02'510.5
2017-Jul-13 01:00N 51°38' E 002°04'611.6
2017-Jul-13 00:28N 51°44' E 002°06'1412.2
2017-Jul-12 23:16N 51°58' E 002°10'312.2
2017-Jul-12 23:00N 52°01' E 002°09'612.2
2017-Jul-12 22:30N 52°07' E 002°07'2711.7
2017-Jul-12 20:11N 52°34' E 001°58'211.4
2017-Jul-12 20:00N 52°36' E 001°58'510.8
2017-Jul-12 19:31N 52°41' E 001°56'510.0
2017-Jul-12 19:01N 52°46' E 001°54'5 9.8
2017-Jul-12 18:31N 52°49' E 001°47'5 9.3
2017-Jul-12 18:01N 52°51' E 001°41'4 8.7
2017-Jul-12 17:31N 52°54' E 001°35'4 8.3
2017-Jul-12 17:01N 52°56' E 001°29'4 8.1
2017-Jul-12 16:30N 52°58' E 001°23'4 8.3
2017-Jul-12 16:00N 52°59' E 001°16'53 8.7
2017-Jul-12 09:55N 53°33' E 000°08'511.8
2017-Jul-12 09:31N 53°35' E 000°00'612.1
2017-Jul-12 09:00N 53°38' W 000°09'1 2.6
2017-Jul-12 08:27N 53°38' W 000°11'  
Track history (hours):
 
Tides and Currents Weather Stations Pressure Air Temp Water Temp Dewpoint Dewpoint Depression Visibility Wind Speed Wind Dir Waves Ship Positions

Berit

Last reported at 2017-Jul-21 03:42 UTC. Time now 2017-Jul-23 20:42 UTC.
Position N 63°19' E 006°50'.

Length 83 m; draft 3.4 m.

Type: Cargo ship. MMSI: 236386000.

Date/timePositionNaut miles runAvg speedWind from/ knotsBaromVisibWave heightAir tempDewpointWater temp
2017-Jul-21 03:42N 63°19' E 006°50'210.2
2017-Jul-21 03:30N 63°19' E 006°55'510.0
2017-Jul-21 03:00N 63°17' E 007°05'510.4
2017-Jul-21 02:30N 63°16' E 007°16'510.3
2017-Jul-21 02:01N 63°15' E 007°27'510.1
2017-Jul-21 01:30N 63°14' E 007°39'4 8.9
2017-Jul-21 01:01N 63°11' E 007°44'510.3
2017-Jul-21 00:30N 63°06' E 007°41'3 5.0
2017-Jul-21 00:00N 63°03' E 007°39'0 0.0
2017-Jul-20 23:28N 63°03' E 007°39'0 0.0
2017-Jul-20 22:58N 63°03' E 007°39'0 0.0
2017-Jul-20 22:28N 63°03' E 007°39'0 0.0
2017-Jul-20 21:58N 63°03' E 007°39'0 0.0
2017-Jul-20 21:28N 63°03' E 007°39'0 0.0
2017-Jul-20 20:58N 63°03' E 007°39'0 0.0
2017-Jul-20 20:28N 63°03' E 007°39'0 0.0
2017-Jul-20 19:58N 63°03' E 007°39'0 0.0
2017-Jul-20 19:28N 63°03' E 007°39'0 0.0
2017-Jul-20 18:58N 63°03' E 007°39'0 0.0
2017-Jul-20 18:28N 63°03' E 007°39'0 0.0
2017-Jul-20 17:58N 63°03' E 007°39'0 0.0
2017-Jul-20 17:28N 63°03' E 007°39'0 0.0
2017-Jul-20 16:58N 63°03' E 007°39'0 0.0
2017-Jul-20 16:28N 63°03' E 007°39'0 0.0
2017-Jul-20 15:58N 63°03' E 007°39'0 0.0
2017-Jul-20 15:28N 63°03' E 007°39'0 0.0
2017-Jul-20 14:58N 63°03' E 007°39'0 0.0
2017-Jul-20 13:58N 63°03' E 007°39'0 0.0
2017-Jul-20 13:28N 63°03' E 007°39'0 0.0
2017-Jul-20 12:58N 63°03' E 007°39'0 0.0
2017-Jul-20 12:28N 63°03' E 007°39'0 0.0
2017-Jul-20 11:58N 63°03' E 007°39'0 0.0
2017-Jul-20 11:28N 63°03' E 007°39'0 0.0
2017-Jul-20 10:58N 63°03' E 007°39'0 0.0
2017-Jul-20 10:28N 63°03' E 007°39'0 0.0
2017-Jul-20 09:58N 63°03' E 007°39'0 0.0
2017-Jul-20 09:28N 63°03' E 007°39'0 0.0
2017-Jul-20 08:58N 63°03' E 007°39'0 0.0
2017-Jul-20 08:28N 63°03' E 007°39'0 0.0
2017-Jul-20 07:58N 63°03' E 007°39'0 0.0
2017-Jul-20 07:28N 63°03' E 007°39'0 0.0
2017-Jul-20 06:58N 63°03' E 007°39'0 0.0
2017-Jul-20 06:28N 63°03' E 007°39'0 0.0
2017-Jul-20 05:58N 63°03' E 007°39'0 0.0
2017-Jul-20 05:28N 63°03' E 007°39'0 0.0
2017-Jul-20 04:58N 63°03' E 007°39'0 0.0
2017-Jul-20 04:28N 63°03' E 007°39'0 0.0
2017-Jul-20 03:58N 63°03' E 007°39'0 0.0
2017-Jul-20 03:28N 63°03' E 007°39'0 0.0
2017-Jul-20 02:58N 63°03' E 007°39'0 0.0
2017-Jul-20 02:28N 63°03' E 007°39'0 0.0
2017-Jul-20 01:58N 63°03' E 007°39'0 0.0
2017-Jul-20 01:28N 63°03' E 007°39'0 0.2
2017-Jul-20 01:01N 63°03' E 007°40'4 7.3
2017-Jul-20 00:30N 63°07' E 007°40'5 9.7
2017-Jul-20 00:01N 63°12' E 007°44'4 8.4
2017-Jul-19 23:30N 63°15' E 007°38'4 8.8
2017-Jul-19 23:00N 63°14' E 007°28'4 9.0
2017-Jul-19 22:31N 63°12' E 007°19'4 8.7
2017-Jul-19 22:00N 63°10' E 007°11'4 8.6
2017-Jul-19 21:30N 63°07' E 007°03'4 8.8
2017-Jul-19 21:00N 63°05' E 006°55'4 8.7
2017-Jul-19 20:30N 63°03' E 006°47'4 8.6
2017-Jul-19 20:00N 63°00' E 006°39'4 8.7
2017-Jul-19 19:30N 62°58' E 006°31'4 8.1
2017-Jul-19 18:59N 62°56' E 006°23'4 8.4
2017-Jul-19 18:30N 62°53' E 006°16'4 8.5
2017-Jul-19 18:00N 62°51' E 006°08'4 8.5
2017-Jul-19 17:30N 62°49' E 006°00'4 8.5
2017-Jul-19 17:00N 62°46' E 005°52'4 8.6
2017-Jul-19 16:30N 62°43' E 005°47'4 8.9
2017-Jul-19 16:00N 62°40' E 005°41'5 9.1
2017-Jul-19 15:30N 62°36' E 005°35'5 9.3
2017-Jul-19 15:00N 62°32' E 005°29'5 9.3
2017-Jul-19 14:30N 62°28' E 005°23'5 9.3
2017-Jul-19 14:00N 62°25' E 005°17'5 9.3
2017-Jul-19 13:30N 62°21' E 005°11'5 9.3
2017-Jul-19 13:00N 62°17' E 005°05'5 9.2
2017-Jul-19 12:30N 62°14' E 004°59'4 9.1
2017-Jul-19 12:00N 62°10' E 004°54'5 9.2
2017-Jul-19 11:30N 62°06' E 004°50'5 9.1
2017-Jul-19 11:00N 62°01' E 004°45'5 9.3
2017-Jul-19 10:30N 61°57' E 004°42'5 9.2
2017-Jul-19 10:00N 61°53' E 004°38'5 9.3
2017-Jul-19 09:30N 61°49' E 004°34'5 9.3
2017-Jul-19 09:00N 61°44' E 004°30'5 9.1
2017-Jul-19 08:30N 61°40' E 004°26'5 9.2
2017-Jul-19 08:00N 61°36' E 004°25'5 9.4
2017-Jul-19 07:31N 61°31' E 004°24'5 9.6
2017-Jul-19 07:00N 61°26' E 004°22'5 9.8
2017-Jul-19 06:31N 61°22' E 004°22'510.0
2017-Jul-19 06:00N 61°16' E 004°20'510.2
2017-Jul-19 05:30N 61°11' E 004°20'510.3
2017-Jul-19 05:00N 61°06' E 004°19'510.3
2017-Jul-19 04:30N 61°01' E 004°18'510.0
2017-Jul-19 04:00N 60°56' E 004°17'5 9.9
2017-Jul-19 03:29N 60°51' E 004°18'510.0
2017-Jul-19 03:00N 60°46' E 004°19'510.1
2017-Jul-19 02:30N 60°41' E 004°20'96 9.5
2017-Jul-18 16:24N 59°06' E 004°45'4 9.2
2017-Jul-18 15:59N 59°03' E 004°49'5 9.2
2017-Jul-18 15:29N 58°59' E 004°54'4 9.2
2017-Jul-18 15:00N 58°56' E 004°58'9 9.4
2017-Jul-18 14:00N 58°48' E 005°08'5 9.3
2017-Jul-18 13:31N 58°44' E 005°13'5 9.1
2017-Jul-18 13:01N 58°40' E 005°18'4 9.0
2017-Jul-18 12:31N 58°36' E 005°22'4 8.7
2017-Jul-18 12:01N 58°32' E 005°26'4 8.6
2017-Jul-18 11:31N 58°29' E 005°31'4 8.0
2017-Jul-18 11:00N 58°25' E 005°34'4 8.1
2017-Jul-18 10:30N 58°21' E 005°37'4 8.4
2017-Jul-18 10:00N 58°17' E 005°39'4 8.6
2017-Jul-18 09:30N 58°13' E 005°40'187 8.6
2017-Jul-17 11:44N 55°06' E 005°30'2 8.8
2017-Jul-17 11:29N 55°04' E 005°29'4 8.9
2017-Jul-17 10:59N 54°60' E 005°28'4 8.9
2017-Jul-17 10:31N 54°56' E 005°26'82 9.0
2017-Jul-17 01:23N 53°36' E 004°50'4 9.7
2017-Jul-17 00:59N 53°33' E 004°47'6 9.9
2017-Jul-17 00:25N 53°27' E 004°43'1510.3
2017-Jul-16 22:57N 53°14' E 004°33'511.0
2017-Jul-16 22:30N 53°09' E 004°29'611.3
2017-Jul-16 22:00N 53°04' E 004°25'511.1
2017-Jul-16 21:30N 52°60' E 004°20'611.1
2017-Jul-16 20:59N 52°55' E 004°15'511.0
2017-Jul-16 20:31N 52°50' E 004°11'611.1
2017-Jul-16 20:01N 52°45' E 004°06'610.9
2017-Jul-16 19:30N 52°41' E 003°60'84 9.2
2017-Jul-16 10:19N 51°38' E 002°29'3 9.3
2017-Jul-16 10:00N 51°36' E 002°26'5 9.4
2017-Jul-16 09:29N 51°32' E 002°21'5 9.7
2017-Jul-16 09:00N 51°28' E 002°16'510.2
2017-Jul-16 08:31N 51°24' E 002°12'510.3
2017-Jul-16 08:01N 51°20' E 002°08'510.7
2017-Jul-16 07:31N 51°15' E 002°04'510.7
2017-Jul-16 07:00N 51°12' E 001°57'611.0
2017-Jul-16 06:31N 51°09' E 001°50'611.5
2017-Jul-16 06:00N 51°04' E 001°43'612.1
2017-Jul-16 05:30N 50°60' E 001°37'712.7
2017-Jul-16 04:57N 50°55' E 001°30'91 9.8
2017-Jul-15 19:41N 49°46' W 000°06'2 8.1
2017-Jul-15 19:27N 49°45' W 000°07'11 8.9
2017-Jul-15 18:16N 49°35' W 000°10'3 9.4
2017-Jul-15 18:00N 49°32' W 000°10'4 9.1
2017-Jul-15 17:31N 49°29' W 000°05'510.1
2017-Jul-15 17:00N 49°27' E 000°02'510.5
2017-Jul-15 16:31N 49°26' E 000°10'510.3
2017-Jul-15 16:01N 49°26' E 000°18'5 9.5
2017-Jul-15 15:31N 49°27' E 000°25'5 0.2
2017-Jul-14 10:40N 49°29' E 000°32'211.3
2017-Jul-14 10:27N 49°28' E 000°28'612.8
2017-Jul-14 10:00N 49°26' E 000°20'612.3
2017-Jul-14 09:30N 49°26' E 000°11'611.4
2017-Jul-14 09:00N 49°27' E 000°02'4 8.4
2017-Jul-14 08:30N 49°29' W 000°04'1 2.7
2017-Jul-14 08:00N 49°29' W 000°06'0 0.0
2017-Jul-14 07:30N 49°29' W 000°06'0 0.0
2017-Jul-14 06:57N 49°29' W 000°06'0 0.0
2017-Jul-14 06:30N 49°29' W 000°06'0 0.0
2017-Jul-14 05:57N 49°29' W 000°06'0 0.0
2017-Jul-14 05:27N 49°29' W 000°06'0 0.0
2017-Jul-14 04:54N 49°29' W 000°06'0 0.0
2017-Jul-14 04:27N 49°29' W 000°06'0 0.1
2017-Jul-14 04:00N 49°29' W 000°06'0 0.0
2017-Jul-14 03:27N 49°29' W 000°06'0 0.0
2017-Jul-14 02:57N 49°29' W 000°06'0 0.0
2017-Jul-14 02:27N 49°29' W 000°06'0 0.0
2017-Jul-14 02:00N 49°29' W 000°06'0 0.0
2017-Jul-14 01:30N 49°29' W 000°06'0 0.0
2017-Jul-14 01:00N 49°29' W 000°06'0 0.0
2017-Jul-14 00:30N 49°29' W 000°06'0 0.0
2017-Jul-14 00:00N 49°29' W 000°06'0 0.0
2017-Jul-13 23:27N 49°29' W 000°06'0 0.0
2017-Jul-13 22:51N 49°29' W 000°06'0 0.0
2017-Jul-13 22:30N 49°29' W 000°06'0 0.1
2017-Jul-13 21:57N 49°29' W 000°06'0 0.0
2017-Jul-13 21:30N 49°29' W 000°06'0 0.1
2017-Jul-13 21:00N 49°29' W 000°06'0 0.0
2017-Jul-13 20:30N 49°29' W 000°06'0 0.0
2017-Jul-13 20:00N 49°29' W 000°06'0 0.0
2017-Jul-13 19:27N 49°29' W 000°06'0 0.0
2017-Jul-13 18:57N 49°29' W 000°06'0 0.0
2017-Jul-13 18:27N 49°29' W 000°06'1 2.3
2017-Jul-13 18:01N 49°29' W 000°07'4 8.5
2017-Jul-13 17:30N 49°33' W 000°11'510.8
2017-Jul-13 17:00N 49°38' W 000°11'610.8
2017-Jul-13 16:28N 49°44' W 000°10'710.8
2017-Jul-13 15:47N 49°51' W 000°08'310.5
2017-Jul-13 15:30N 49°54' W 000°08'510.6
2017-Jul-13 15:00N 49°59' W 000°07'510.6
2017-Jul-13 14:30N 50°04' W 000°06'510.4
2017-Jul-13 14:00N 50°10' W 000°05'1110.0
2017-Jul-13 12:57N 50°20' W 000°05'5 9.6
2017-Jul-13 12:24N 50°25' W 000°02'3 8.2
2017-Jul-13 12:00N 50°28' E 000°01'4 8.5
2017-Jul-13 11:30N 50°29' E 000°07'5 8.5
2017-Jul-13 10:53N 50°32' E 000°15'13 9.2
2017-Jul-13 09:31N 50°37' E 000°33'010.1
2017-Jul-13 09:30N 50°37' E 000°33'610.6
2017-Jul-13 08:58N 50°40' E 000°41'510.9
2017-Jul-13 08:30N 50°43' E 000°46'1711.9
2017-Jul-13 07:07N 50°53' E 001°07'111.8
2017-Jul-13 07:00N 50°54' E 001°09'611.6
2017-Jul-13 06:30N 50°58' E 001°16'611.2
2017-Jul-13 06:01N 51°02' E 001°23'510.5
2017-Jul-13 05:30N 51°05' E 001°29'5 9.4
2017-Jul-13 05:01N 51°08' E 001°35'4 8.5
2017-Jul-13 04:31N 51°11' E 001°40'4 8.2
2017-Jul-13 04:00N 51°13' E 001°45'4 8.4
2017-Jul-13 03:31N 51°17' E 001°47'4 8.5
2017-Jul-13 03:01N 51°21' E 001°50'4 9.0
2017-Jul-13 02:30N 51°26' E 001°52'5 9.1
2017-Jul-13 02:00N 51°29' E 001°56'5 9.9
2017-Jul-13 01:30N 51°33' E 002°02'510.5
2017-Jul-13 01:00N 51°38' E 002°04'611.6
2017-Jul-13 00:28N 51°44' E 002°06'1412.2
2017-Jul-12 23:16N 51°58' E 002°10'312.2
2017-Jul-12 23:00N 52°01' E 002°09'612.2
2017-Jul-12 22:30N 52°07' E 002°07'2711.7
2017-Jul-12 20:11N 52°34' E 001°58'211.4
2017-Jul-12 20:00N 52°36' E 001°58'510.8
2017-Jul-12 19:31N 52°41' E 001°56'510.0
2017-Jul-12 19:01N 52°46' E 001°54'5 9.8
2017-Jul-12 18:31N 52°49' E 001°47'5 9.3
2017-Jul-12 18:01N 52°51' E 001°41'4 8.7
2017-Jul-12 17:31N 52°54' E 001°35'4 8.3
2017-Jul-12 17:01N 52°56' E 001°29'4 8.1
2017-Jul-12 16:30N 52°58' E 001°23'4 8.3
2017-Jul-12 16:00N 52°59' E 001°16'53 8.7
2017-Jul-12 09:55N 53°33' E 000°08'511.8
2017-Jul-12 09:31N 53°35' E 000°00'612.1
2017-Jul-12 09:00N 53°38' W 000°09'1 2.6
2017-Jul-12 08:27N 53°38' W 000°11'  

Dump ship's entire track history